Terminal Aerodrome Forecast
Issued by NWS

Home | Current Version | Previous Version | Text Only | Print | Product List | Glossary On
Versions: 1 2 3 4 5 6 7 8 9 10 11 12 13 14 15 16 17 18 19 20 21
000
FTUS42 KFFC 061942 AAA
TAFPDK
TAF AMD
KPDK 061942Z 0620/0718 34004KT P6SM BKN045
     FM062100 32005KT P6SM SCT045
     FM070000 00000KT P6SM FEW250
     FM071700 30005KT P6SM SCT150=

USA.gov is the U.S. government's official web portal to all federal, state and local government web resources and services.